Time;durP1;ratioP1;P1;durP2;ratioP2;P2;SDS_P1;SDS_P2;PMS_P1;PMS_P2;Temp;Humidity;BMP_temperature;BMP_pressure;BME280_temperature;BME280_humidity;BME280_pressure;Samples;Min_cycle;Max_cycle;Signal;HPM_P1;HPM_P2
2022/02/09 00:01:21;;;;;;;30.37;13.43;;;;;;;;;;5097735;28;20225;-72
2022/02/09 00:03:57;;;;;;;27.97;13.53;;;;;;;;;;5090142;28;20206;-72
2022/02/09 00:06:41;;;;;;;22.73;11.70;;;;;;;;;;5078414;28;20236;-72
2022/02/09 00:09:10;;;;;;;22.23;10.07;;;;;;;;;;5078563;28;20198;-72
2022/02/09 00:11:44;;;;;;;25.93;12.00;;;;;;;;;;5078341;28;20572;-72
2022/02/09 00:14:20;;;;;;;22.10;11.67;;;;;;;;;;5089762;28;20611;-72
2022/02/09 00:17:16;;;;;;;17.17;9.93;;;;;;;;;;5078123;28;20245;-72
2022/02/09 00:20:01;;;;;;;19.57;9.50;;;;;;;;;;5089288;28;20455;-72
2022/02/09 00:22:43;;;;;;;21.07;9.80;;;;;;;;;;5078316;28;20572;-72
2022/02/09 00:25:35;;;;;;;17.87;9.20;;;;;;;;;;5078244;28;20531;-72
2022/02/09 00:28:27;;;;;;;18.00;9.30;;;;;;;;;;5079837;28;20523;-71
2022/02/09 00:39:31;;;;;;;19.03;9.67;;;;;;;;;;5066556;28;21013;-72
2022/02/09 00:42:15;;;;;;;15.63;8.90;;;;;;;;;;5084370;28;20491;-72
2022/02/09 00:45:07;;;;;;;18.30;9.20;;;;;;;;;;5086124;28;20458;-72
2022/02/09 00:59:35;;;;;;;25.97;13.00;;;;;;;;;;5033971;28;20875;-72
2022/02/09 01:38:10;;;;;;;10.87;7.33;;;;;;;;;;5096705;28;20443;-72
2022/02/09 01:41:53;;;;;;;18.83;9.93;;;;;;;;;;5092186;28;20458;-72
2022/02/09 01:57:40;;;;;;;14.10;7.70;;;;;;;;;;5090903;28;20470;-72
2022/02/09 02:00:09;;;;;;;15.80;7.70;;;;;;;;;;5090781;28;20452;-71
2022/02/09 02:02:38;;;;;;;19.83;7.90;;;;;;;;;;5089673;28;20517;-72
2022/02/09 02:05:06;;;;;;;15.83;7.83;;;;;;;;;;5096176;28;20452;-72
2022/02/09 02:07:44;;;;;;;15.53;7.70;;;;;;;;;;5097195;28;20464;-72
2022/02/09 02:10:13;;;;;;;11.10;7.23;;;;;;;;;;5096476;28;20453;-72
2022/02/09 02:16:17;;;;;;;11.47;6.93;;;;;;;;;;5090303;28;20447;-71
2022/02/09 02:18:51;;;;;;;11.73;6.97;;;;;;;;;;5096768;28;20461;-72
2022/02/09 02:21:31;;;;;;;14.73;7.73;;;;;;;;;;5077116;28;20459;-72
2022/02/09 02:24:22;;;;;;;13.37;7.37;;;;;;;;;;5078592;28;20439;-72
2022/02/09 02:27:13;;;;;;;13.97;7.03;;;;;;;;;;5089236;28;20990;-72
2022/02/09 02:29:59;;;;;;;11.47;7.07;;;;;;;;;;5082269;28;20449;-72
2022/02/09 02:32:45;;;;;;;14.57;8.37;;;;;;;;;;5080338;28;20797;-72
2022/02/09 02:44:52;;;;;;;14.57;8.17;;;;;;;;;;5115000;28;20442;-72
2022/02/09 02:47:24;;;;;;;14.10;7.40;;;;;;;;;;5101535;28;20459;-73
2022/02/09 03:09:35;;;;;;;11.80;7.87;;;;;;;;;;5094633;28;20444;-72
2022/02/09 03:12:11;;;;;;;8.83;6.53;;;;;;;;;;5095264;28;21049;-72
2022/02/09 03:14:47;;;;;;;13.30;8.40;;;;;;;;;;5081592;28;20454;-72
2022/02/09 03:17:19;;;;;;;14.97;8.80;;;;;;;;;;5094202;28;20824;-72
2022/02/09 03:19:57;;;;;;;14.40;8.00;;;;;;;;;;5088252;28;20479;-72
2022/02/09 03:22:38;;;;;;;17.70;8.10;;;;;;;;;;5094095;28;20439;-72
2022/02/09 03:44:35;;;;;;;15.13;8.97;;;;;;;;;;5093723;28;20444;-72
2022/02/09 03:47:24;;;;;;;17.03;8.33;;;;;;;;;;5093875;28;20520;-72
2022/02/09 03:50:20;;;;;;;20.70;9.30;;;;;;;;;;5093241;28;20444;-72
2022/02/09 03:53:07;;;;;;;16.37;8.60;;;;;;;;;;5079445;28;20440;-72
2022/02/09 03:55:43;;;;;;;19.50;8.73;;;;;;;;;;5080160;28;20455;-72
2022/02/09 03:58:14;;;;;;;13.73;7.63;;;;;;;;;;5080297;28;20452;-72
2022/02/09 04:00:44;;;;;;;19.57;8.57;;;;;;;;;;5080046;28;20991;-72
2022/02/09 04:03:19;;;;;;;15.83;8.73;;;;;;;;;;5080349;28;20451;-72
2022/02/09 04:05:49;;;;;;;16.80;8.07;;;;;;;;;;5079347;28;20453;-72
2022/02/09 04:08:19;;;;;;;15.70;8.20;;;;;;;;;;5080050;28;20463;-71
2022/02/09 04:10:48;;;;;;;12.97;7.53;;;;;;;;;;5079948;28;20445;-72
2022/02/09 04:13:23;;;;;;;13.90;8.27;;;;;;;;;;5080401;28;20440;-71
2022/02/09 04:15:59;;;;;;;18.97;9.07;;;;;;;;;;5080075;28;20458;-72
2022/02/09 04:37:58;;;;;;;13.83;7.77;;;;;;;;;;5079391;28;20469;-72
2022/02/09 04:43:27;;;;;;;13.93;7.53;;;;;;;;;;5079235;28;20448;-72
2022/02/09 04:49:06;;;;;;;11.80;7.40;;;;;;;;;;5022078;28;20447;-71
2022/02/09 04:51:45;;;;;;;17.17;7.47;;;;;;;;;;5079256;28;20798;-71
2022/02/09 04:54:28;;;;;;;18.47;7.40;;;;;;;;;;5078936;28;20459;-71
2022/02/09 04:56:59;;;;;;;9.87;6.77;;;;;;;;;;5079221;28;20464;-71
2022/02/09 04:59:37;;;;;;;10.93;7.27;;;;;;;;;;5078648;28;20927;-71
2022/02/09 05:02:30;;;;;;;14.80;8.13;;;;;;;;;;5079032;28;20480;-71
2022/02/09 05:05:23;;;;;;;15.07;7.73;;;;;;;;;;5066828;28;20444;-71
2022/02/09 05:19:41;;;;;;;12.87;7.17;;;;;;;;;;5065775;28;20466;-71
2022/02/09 05:22:15;;;;;;;12.13;6.53;;;;;;;;;;5077937;28;20909;-71
2022/02/09 05:24:59;;;;;;;14.40;7.37;;;;;;;;;;5078206;28;20506;-71
2022/02/09 05:27:37;;;;;;;13.23;7.30;;;;;;;;;;5078495;28;20476;-71
2022/02/09 05:30:08;;;;;;;16.20;8.40;;;;;;;;;;5078261;28;20444;-72
2022/02/09 05:32:37;;;;;;;11.20;7.87;;;;;;;;;;5077709;28;20444;-72
2022/02/09 05:35:06;;;;;;;14.73;7.00;;;;;;;;;;5078137;28;20452;-72
2022/02/09 05:37:34;;;;;;;11.90;7.83;;;;;;;;;;5078230;28;20469;-72
2022/02/09 05:40:03;;;;;;;14.73;7.13;;;;;;;;;;5077936;28;20472;-73
2022/02/09 05:42:32;;;;;;;20.27;8.00;;;;;;;;;;5077894;28;20445;-73
2022/02/09 05:45:05;;;;;;;12.97;6.60;;;;;;;;;;5078120;28;20456;-73
2022/02/09 05:50:25;;;;;;;15.63;7.07;;;;;;;;;;5077551;28;20444;-75
2022/02/09 05:53:05;;;;;;;11.77;8.20;;;;;;;;;;5077475;28;20448;-73
2022/02/09 05:55:45;;;;;;;12.30;7.23;;;;;;;;;;5078021;28;20454;-72
2022/02/09 05:58:21;;;;;;;14.40;7.37;;;;;;;;;;5076343;28;20448;-72
2022/02/09 06:00:54;;;;;;;12.80;7.37;;;;;;;;;;5075388;28;20982;-73
2022/02/09 06:03:22;;;;;;;15.67;7.00;;;;;;;;;;5078953;28;20444;-72
2022/02/09 06:05:50;;;;;;;13.70;6.90;;;;;;;;;;5078062;28;20459;-72
2022/02/09 06:08:18;;;;;;;9.53;6.37;;;;;;;;;;5078077;28;20451;-72
2022/02/09 06:10:53;;;;;;;11.73;7.37;;;;;;;;;;5077629;28;20506;-71
2022/02/09 06:13:27;;;;;;;10.93;6.37;;;;;;;;;;5077779;28;20452;-71
2022/02/09 06:19:36;;;;;;;11.83;6.60;;;;;;;;;;5077425;28;20464;-72
2022/02/09 06:21:40;;;;;;;14.20;7.93;;;;;;;;;;5076673;28;21069;-71
2022/02/09 06:24:08;;;;;;;10.87;6.77;;;;;;;;;;5077123;28;20437;-72
2022/02/09 06:26:38;;;;;;;10.87;6.00;;;;;;;;;;5076554;28;21011;-70
2022/02/09 06:29:06;;;;;;;12.30;6.60;;;;;;;;;;5077133;28;20443;-69
2022/02/09 06:31:35;;;;;;;12.40;6.80;;;;;;;;;;5077129;28;20808;-69
2022/02/09 06:34:03;;;;;;;19.03;7.27;;;;;;;;;;5074147;28;20437;-69
2022/02/09 06:36:37;;;;;;;13.77;7.00;;;;;;;;;;5077717;28;20461;-69
2022/02/09 06:39:07;;;;;;;12.00;6.90;;;;;;;;;;5077025;28;20440;-69
2022/02/09 06:41:35;;;;;;;12.70;6.53;;;;;;;;;;5077532;28;20487;-69
2022/02/09 06:44:05;;;;;;;9.07;5.73;;;;;;;;;;5077305;28;20436;-69
2022/02/09 06:46:35;;;;;;;8.87;6.10;;;;;;;;;;5077427;28;20469;-69
2022/02/09 06:49:06;;;;;;;11.60;8.20;;;;;;;;;;5067576;28;20462;-68
2022/02/09 06:51:36;;;;;;;10.63;6.80;;;;;;;;;;5076971;28;20808;-68
2022/02/09 06:54:09;;;;;;;11.97;7.50;;;;;;;;;;5077122;28;20445;-69
2022/02/09 06:56:44;;;;;;;11.23;5.90;;;;;;;;;;5076655;28;20461;-68
2022/02/09 06:59:21;;;;;;;10.73;6.50;;;;;;;;;;5076343;28;20431;-65
2022/02/09 07:01:49;;;;;;;11.30;7.27;;;;;;;;;;5076139;28;20468;-71
2022/02/09 07:04:17;;;;;;;12.03;6.10;;;;;;;;;;5076027;28;20447;-70
2022/02/09 07:06:45;;;;;;;9.03;6.63;;;;;;;;;;5076150;28;20474;-71
2022/02/09 07:09:14;;;;;;;11.23;6.80;;;;;;;;;;5076722;28;20805;-71
2022/02/09 07:11:42;;;;;;;10.50;6.43;;;;;;;;;;5076359;28;20445;-70
2022/02/09 07:14:10;;;;;;;13.17;6.27;;;;;;;;;;5074392;28;20447;-69
2022/02/09 07:16:40;;;;;;;12.73;5.90;;;;;;;;;;5076167;28;21029;-71
2022/02/09 07:22:38;;;;;;;14.77;7.83;;;;;;;;;;5074881;28;20969;-68
2022/02/09 07:25:10;;;;;;;15.13;6.77;;;;;;;;;;5076357;28;20447;-68
2022/02/09 07:27:49;;;;;;;10.73;6.07;;;;;;;;;;5078117;28;20476;-68
2022/02/09 07:30:19;;;;;;;15.77;7.27;;;;;;;;;;5080661;28;20444;-67
2022/02/09 07:32:51;;;;;;;11.83;6.63;;;;;;;;;;5080446;28;20443;-68
2022/02/09 07:35:19;;;;;;;14.30;6.67;;;;;;;;;;5079904;28;20493;-67
2022/02/09 07:37:47;;;;;;;11.97;6.60;;;;;;;;;;5079492;28;20468;-69
2022/02/09 07:40:15;;;;;;;21.17;7.40;;;;;;;;;;5080055;28;20983;-68
2022/02/09 07:42:48;;;;;;;13.27;6.63;;;;;;;;;;5081069;28;20486;-69
2022/02/09 07:45:43;;;;;;;15.77;7.43;;;;;;;;;;5090851;28;20436;-68
2022/02/09 07:48:26;;;;;;;13.77;7.53;;;;;;;;;;5079871;28;20796;-68
2022/02/09 07:53:48;;;;;;;12.93;6.80;;;;;;;;;;5072248;28;20456;-68
2022/02/09 07:56:17;;;;;;;11.77;6.97;;;;;;;;;;5079768;28;20464;-68
2022/02/09 07:58:45;;;;;;;20.50;7.70;;;;;;;;;;5088071;28;20443;-68
2022/02/09 08:01:13;;;;;;;15.90;8.50;;;;;;;;;;5084390;28;20444;-68
2022/02/09 08:03:43;;;;;;;11.67;7.37;;;;;;;;;;5087948;28;20530;-69
2022/02/09 08:06:11;;;;;;;16.47;7.20;;;;;;;;;;5084328;28;20471;-68
2022/02/09 08:08:41;;;;;;;21.17;7.73;;;;;;;;;;5080264;28;20454;-69
2022/02/09 08:11:18;;;;;;;16.27;8.00;;;;;;;;;;5080178;28;20478;-68
2022/02/09 08:27:41;;;;;;;13.20;6.77;;;;;;;;;;5079652;28;20475;-68
2022/02/09 08:30:21;;;;;;;13.40;6.10;;;;;;;;;;5092942;28;20825;-69
2022/02/09 08:32:57;;;;;;;11.73;6.47;;;;;;;;;;5079108;28;21302;-69
2022/02/09 08:35:26;;;;;;;10.50;6.37;;;;;;;;;;5085712;28;20850;-69
2022/02/09 08:37:57;;;;;;;10.27;6.63;;;;;;;;;;5085048;28;20908;-69
2022/02/09 08:40:25;;;;;;;10.87;6.23;;;;;;;;;;5079348;28;20514;-70
2022/02/09 08:42:54;;;;;;;11.20;5.30;;;;;;;;;;5079344;28;20548;-70
2022/02/09 08:45:22;;;;;;;12.93;5.87;;;;;;;;;;5085869;28;20443;-69
2022/02/09 08:47:51;;;;;;;10.97;6.00;;;;;;;;;;5085089;28;20882;-70
2022/02/09 08:50:20;;;;;;;10.33;5.40;;;;;;;;;;5079061;28;20455;-69
2022/02/09 08:52:52;;;;;;;10.60;5.47;;;;;;;;;;5079729;28;20449;-69
2022/02/09 08:55:20;;;;;;;12.10;5.93;;;;;;;;;;5079988;28;20444;-69
2022/02/09 08:57:48;;;;;;;9.73;5.57;;;;;;;;;;5078719;28;20551;-70
2022/02/09 09:00:21;;;;;;;10.77;5.67;;;;;;;;;;5078455;28;20452;-69
2022/02/09 09:03:02;;;;;;;10.50;5.47;;;;;;;;;;5078491;28;20321;-69
2022/02/09 09:05:40;;;;;;;13.10;5.83;;;;;;;;;;5092064;28;20527;-69
2022/02/09 09:08:22;;;;;;;11.83;6.07;;;;;;;;;;5079553;28;20248;-68
2022/02/09 09:11:10;;;;;;;9.83;5.07;;;;;;;;;;5078657;28;20444;-69
2022/02/09 09:59:01;;;;;;;11.27;5.57;;;;;;;;;;5079345;28;20232;-70
2022/02/09 10:01:45;;;;;;;9.63;5.27;;;;;;;;;;5069860;28;20208;-70
2022/02/09 10:04:33;;;;;;;7.37;4.87;;;;;;;;;;5077155;28;20226;-69
2022/02/09 10:32:52;;;;;;;13.23;5.23;;;;;;;;;;5075197;28;20202;-69
2022/02/09 10:35:27;;;;;;;10.77;4.60;;;;;;;;;;5073010;28;20252;-68
2022/02/09 10:38:00;;;;;;;13.63;5.70;;;;;;;;;;5075792;28;20222;-69
2022/02/09 10:40:31;;;;;;;11.90;4.73;;;;;;;;;;5075782;28;20230;-70
2022/02/09 10:43:02;;;;;;;12.00;5.20;;;;;;;;;;5076819;28;20222;-70
2022/02/09 10:45:33;;;;;;;10.07;5.73;;;;;;;;;;5074806;28;20198;-69
2022/02/09 10:48:04;;;;;;;8.30;5.07;;;;;;;;;;5076879;28;20210;-70
2022/02/09 10:50:35;;;;;;;7.00;4.57;;;;;;;;;;5076535;28;20198;-74
2022/02/09 10:53:04;;;;;;;17.10;6.70;;;;;;;;;;5076747;28;20194;-69
2022/02/09 10:55:35;;;;;;;11.53;6.50;;;;;;;;;;5076047;28;20285;-68
2022/02/09 10:58:04;;;;;;;8.60;5.07;;;;;;;;;;5076663;28;20209;-66
2022/02/09 11:00:32;;;;;;;9.97;5.00;;;;;;;;;;5076873;28;20206;-67
2022/02/09 11:03:00;;;;;;;11.27;5.57;;;;;;;;;;5079941;28;20577;-68
2022/02/09 11:05:30;;;;;;;11.63;4.33;;;;;;;;;;5080658;28;20204;-70
2022/02/09 11:07:58;;;;;;;13.53;5.03;;;;;;;;;;5081076;28;20233;-70
2022/02/09 11:10:26;;;;;;;9.50;5.13;;;;;;;;;;5080887;28;20202;-69
2022/02/09 11:12:56;;;;;;;8.23;5.23;;;;;;;;;;5081058;28;20685;-69
2022/02/09 11:15:24;;;;;;;12.77;4.77;;;;;;;;;;5080692;28;20543;-66
2022/02/09 11:17:52;;;;;;;9.97;4.30;;;;;;;;;;5080765;28;20814;-69
2022/02/09 11:20:27;;;;;;;6.33;4.90;;;;;;;;;;5080452;28;20206;-70
2022/02/09 11:22:56;;;;;;;11.17;5.27;;;;;;;;;;5080767;28;20211;-70
2022/02/09 11:25:29;;;;;;;7.47;4.33;;;;;;;;;;5080491;28;20630;-71
2022/02/09 11:28:18;;;;;;;9.97;5.03;;;;;;;;;;5080723;28;20222;-70
2022/02/09 11:31:00;;;;;;;7.30;4.50;;;;;;;;;;5077893;28;20289;-72
2022/02/09 11:33:36;;;;;;;7.50;5.43;;;;;;;;;;5079053;28;20198;-70
2022/02/09 11:36:06;;;;;;;9.00;5.17;;;;;;;;;;5080345;28;20705;-70
2022/02/09 11:38:41;;;;;;;13.47;4.93;;;;;;;;;;5080673;28;20229;-74
2022/02/09 11:41:14;;;;;;;10.37;5.27;;;;;;;;;;5079738;28;20342;-74
2022/02/09 11:43:52;;;;;;;12.90;4.87;;;;;;;;;;5080241;28;20720;-74
2022/02/09 11:46:47;;;;;;;8.80;4.43;;;;;;;;;;5079932;28;20229;-74
2022/02/09 12:09:45;;;;;;;9.57;3.93;;;;;;;;;;5080153;28;20202;-73
2022/02/09 12:12:19;;;;;;;7.37;3.93;;;;;;;;;;5079314;28;20289;-73
2022/02/09 12:14:54;;;;;;;10.77;4.23;;;;;;;;;;5079891;28;20208;-73
2022/02/09 12:17:47;;;;;;;7.87;3.93;;;;;;;;;;5079725;28;20225;-73
2022/02/09 12:20:20;;;;;;;10.17;3.83;;;;;;;;;;5079205;28;20558;-73
2022/02/09 12:23:03;;;;;;;7.73;3.40;;;;;;;;;;5080012;28;20210;-73
2022/02/09 12:25:38;;;;;;;8.20;3.37;;;;;;;;;;5079899;28;20205;-74
2022/02/09 12:28:08;;;;;;;6.67;3.10;;;;;;;;;;5079565;28;20227;-74
2022/02/09 12:30:36;;;;;;;7.73;2.83;;;;;;;;;;5079558;28;20202;-74
2022/02/09 12:33:04;;;;;;;6.60;3.00;;;;;;;;;;5079913;28;20220;-73
2022/02/09 12:35:32;;;;;;;8.43;3.30;;;;;;;;;;5079403;28;20198;-73
2022/02/09 12:38:00;;;;;;;6.33;2.87;;;;;;;;;;5079773;28;20206;-73
2022/02/09 12:40:35;;;;;;;5.27;3.10;;;;;;;;;;5079661;28;20245;-74
2022/02/09 12:43:04;;;;;;;7.63;3.23;;;;;;;;;;5080025;28;20216;-73
2022/02/09 12:45:36;;;;;;;4.87;2.80;;;;;;;;;;5079414;28;20812;-74
2022/02/09 12:48:07;;;;;;;3.97;2.70;;;;;;;;;;5079251;28;20657;-74
2022/02/09 12:50:38;;;;;;;9.57;3.07;;;;;;;;;;5079080;28;20234;-74
2022/02/09 12:53:07;;;;;;;10.30;3.40;;;;;;;;;;5078929;28;20634;-74
2022/02/09 12:55:36;;;;;;;5.53;3.53;;;;;;;;;;5078680;28;20198;-75
2022/02/09 12:58:05;;;;;;;11.83;5.67;;;;;;;;;;5079422;28;20226;-73
2022/02/09 13:00:40;;;;;;;8.43;3.00;;;;;;;;;;5079108;28;20198;-73
2022/02/09 13:03:09;;;;;;;5.27;2.50;;;;;;;;;;5079152;28;20206;-74
2022/02/09 13:05:42;;;;;;;6.50;2.83;;;;;;;;;;5078907;28;20304;-74
2022/02/09 13:08:11;;;;;;;5.77;2.60;;;;;;;;;;5079432;28;20212;-74
2022/02/09 13:10:39;;;;;;;3.30;2.13;;;;;;;;;;5078762;28;20654;-74
2022/02/09 13:13:12;;;;;;;2.33;1.93;;;;;;;;;;5079232;28;20238;-74
2022/02/09 13:15:47;;;;;;;2.37;1.73;;;;;;;;;;5078603;28;20564;-74
2022/02/09 13:18:56;;;;;;;5.63;2.47;;;;;;;;;;5078274;28;20209;-74
2022/02/09 13:24:53;;;;;;;4.67;2.17;;;;;;;;;;5051679;28;20222;-74
2022/02/09 14:07:37;;;;;;;4.33;1.57;;;;;;;;;;4995827;28;20224;-74
2022/02/09 14:10:38;;;;;;;4.63;2.07;;;;;;;;;;5028036;28;20199;-74
2022/02/09 14:13:19;;;;;;;5.07;1.93;;;;;;;;;;5038216;28;20206;-74
2022/02/09 14:16:12;;;;;;;5.53;1.67;;;;;;;;;;5037400;28;20217;-74
2022/02/09 14:19:10;;;;;;;6.70;2.27;;;;;;;;;;5036875;28;20203;-74
2022/02/09 14:35:50;;;;;;;5.70;2.20;;;;;;;;;;5037275;28;20226;-74
2022/02/09 14:54:54;;;;;;;3.43;1.27;;;;;;;;;;5075032;28;20703;-74
2022/02/09 14:57:27;;;;;;;2.27;1.30;;;;;;;;;;5076735;28;20242;-74
2022/02/09 15:00:10;;;;;;;4.23;1.57;;;;;;;;;;5077160;28;20622;-74
2022/02/09 15:02:55;;;;;;;3.77;1.93;;;;;;;;;;5065987;28;20206;-74
2022/02/09 15:08:27;;;;;;;5.57;1.77;;;;;;;;;;5077264;28;20206;-74
2022/02/09 15:11:06;;;;;;;3.50;1.47;;;;;;;;;;5077139;28;20208;-74
2022/02/09 15:13:44;;;;;;;4.30;1.90;;;;;;;;;;5077448;28;20213;-74
2022/02/09 15:16:20;;;;;;;7.27;1.73;;;;;;;;;;5076860;28;20689;-74
2022/02/09 15:24:37;;;;;;;5.57;1.93;;;;;;;;;;5014854;28;20212;-74
2022/02/09 15:27:05;;;;;;;2.93;1.53;;;;;;;;;;5014631;28;20223;-74
2022/02/09 15:29:37;;;;;;;5.70;2.43;;;;;;;;;;5045912;28;20209;-74
2022/02/09 15:32:09;;;;;;;4.67;1.97;;;;;;;;;;5077018;28;20216;-74
2022/02/09 15:34:42;;;;;;;4.57;2.10;;;;;;;;;;5076553;28;20214;-74
2022/02/09 15:37:17;;;;;;;3.03;2.10;;;;;;;;;;5076772;28;20766;-74
2022/02/09 15:39:48;;;;;;;5.60;2.07;;;;;;;;;;5076957;28;20242;-74
2022/02/09 15:42:53;;;;;;;3.10;2.00;;;;;;;;;;5076460;28;20565;-74
2022/02/09 15:56:36;;;;;;;5.37;1.90;;;;;;;;;;5077337;28;20218;-79
2022/02/09 16:23:50;;;;;;;4.17;1.97;;;;;;;;;;5077694;28;20206;-74
2022/02/09 16:46:07;;;;;;;4.53;2.30;;;;;;;;;;5078151;28;20218;-74
2022/02/09 16:48:41;;;;;;;8.67;2.37;;;;;;;;;;5075572;28;20201;-74
2022/02/09 16:51:15;;;;;;;2.87;2.10;;;;;;;;;;5076002;28;20198;-74
2022/02/09 16:53:50;;;;;;;4.73;2.37;;;;;;;;;;5078697;28;20202;-74
2022/02/09 16:56:28;;;;;;;12.73;2.67;;;;;;;;;;5078999;28;20228;-75
2022/02/09 17:15:43;;;;;;;4.07;2.50;;;;;;;;;;5077215;28;20277;-74
2022/02/09 17:20:56;;;;;;;5.57;3.13;;;;;;;;;;5075928;28;20198;-74
2022/02/09 17:23:25;;;;;;;5.80;2.77;;;;;;;;;;5071512;28;20717;-74
2022/02/09 17:25:59;;;;;;;12.80;3.70;;;;;;;;;;5071875;28;20240;-74
2022/02/09 17:28:27;;;;;;;6.93;3.07;;;;;;;;;;5075180;28;20292;-74
2022/02/09 17:31:15;;;;;;;6.20;3.17;;;;;;;;;;5069672;28;20207;-74
2022/02/09 17:36:38;;;;;;;6.63;2.90;;;;;;;;;;5074021;28;20219;-74
2022/02/09 17:39:22;;;;;;;9.53;3.57;;;;;;;;;;5071983;28;20202;-74
2022/02/09 17:58:27;;;;;;;6.93;4.17;;;;;;;;;;5068443;28;20203;-75
2022/02/09 18:00:56;;;;;;;12.87;6.63;;;;;;;;;;5070717;28;20199;-75
2022/02/09 18:03:24;;;;;;;13.30;8.10;;;;;;;;;;5068867;28;20245;-74
2022/02/09 18:05:54;;;;;;;13.67;7.90;;;;;;;;;;5068968;28;20230;-75
2022/02/09 18:08:27;;;;;;;8.87;6.23;;;;;;;;;;5071044;28;20248;-74
2022/02/09 18:11:13;;;;;;;9.37;4.07;;;;;;;;;;5075595;28;20230;-74
2022/02/09 18:30:34;;;;;;;7.00;2.80;;;;;;;;;;5028092;28;20290;-75
2022/02/09 18:33:13;;;;;;;7.00;3.20;;;;;;;;;;5068896;28;20234;-75
2022/02/09 18:44:09;;;;;;;6.30;4.07;;;;;;;;;;5073127;28;20654;-75
2022/02/09 18:46:53;;;;;;;10.30;4.17;;;;;;;;;;5070741;28;20232;-75
2022/02/09 19:03:32;;;;;;;4.57;3.63;;;;;;;;;;5124980;27;20541;-73
2022/02/09 19:06:05;;;;;;;8.47;3.80;;;;;;;;;;5124271;28;20242;-73
2022/02/09 19:08:49;;;;;;;4.67;2.90;;;;;;;;;;5115432;28;20204;-73
2022/02/09 19:14:14;;;;;;;4.47;2.73;;;;;;;;;;5124047;28;20203;-75
2022/02/09 19:19:56;;;;;;;6.07;3.00;;;;;;;;;;5074916;28;20208;-72
2022/02/09 19:30:44;;;;;;;7.53;3.30;;;;;;;;;;5114441;28;20205;-74
2022/02/09 19:47:28;;;;;;;7.67;5.43;;;;;;;;;;5122450;28;20221;-75
2022/02/09 19:53:10;;;;;;;8.50;4.77;;;;;;;;;;5124104;28;20195;-75
2022/02/09 19:55:40;;;;;;;7.23;4.77;;;;;;;;;;5104031;28;20601;-75
2022/02/09 19:58:10;;;;;;;4.00;3.37;;;;;;;;;;5111257;28;20244;-72
2022/02/09 20:00:39;;;;;;;7.27;3.40;;;;;;;;;;5105585;28;20284;-74
2022/02/09 20:03:08;;;;;;;10.27;4.03;;;;;;;;;;5121888;27;20283;-74
2022/02/09 20:05:36;;;;;;;6.33;4.00;;;;;;;;;;5124062;28;20275;-74
2022/02/09 20:08:07;;;;;;;5.93;3.33;;;;;;;;;;5121920;28;20201;-75
2022/02/09 20:10:35;;;;;;;10.07;4.10;;;;;;;;;;5121530;28;20224;-75
2022/02/09 20:13:03;;;;;;;4.90;3.80;;;;;;;;;;5116980;28;20714;-75
2022/02/09 20:15:31;;;;;;;6.30;2.97;;;;;;;;;;5089643;28;20244;-76
2022/02/09 20:17:59;;;;;;;5.43;3.23;;;;;;;;;;5097990;28;20212;-75
2022/02/09 20:20:29;;;;;;;6.87;3.07;;;;;;;;;;5100340;28;20206;-75
2022/02/09 20:22:58;;;;;;;4.17;3.40;;;;;;;;;;5099318;28;20251;-75
2022/02/09 20:25:29;;;;;;;4.63;3.47;;;;;;;;;;5100489;28;20239;-73
2022/02/09 20:27:57;;;;;;;7.10;3.40;;;;;;;;;;5093299;28;20726;-75
2022/02/09 20:30:26;;;;;;;6.17;3.90;;;;;;;;;;5093851;28;20209;-74
2022/02/09 20:32:58;;;;;;;4.70;4.00;;;;;;;;;;5099239;28;20205;-76
2022/02/09 20:35:26;;;;;;;7.10;4.90;;;;;;;;;;5108808;28;20202;-75
2022/02/09 20:37:56;;;;;;;7.43;4.87;;;;;;;;;;5103136;28;20770;-76
2022/02/09 20:40:26;;;;;;;8.83;3.83;;;;;;;;;;5103425;28;20572;-76
2022/02/09 20:42:57;;;;;;;7.23;4.10;;;;;;;;;;5096156;28;20579;-76
2022/02/09 20:45:31;;;;;;;10.43;5.20;;;;;;;;;;5105040;28;20563;-75
2022/02/09 20:48:02;;;;;;;6.63;4.57;;;;;;;;;;5095229;28;20202;-75
2022/02/09 20:50:31;;;;;;;7.00;4.93;;;;;;;;;;5085673;28;20205;-75
2022/02/09 20:52:59;;;;;;;10.33;3.90;;;;;;;;;;5087938;28;20204;-75
2022/02/09 20:55:29;;;;;;;8.43;4.70;;;;;;;;;;5089615;28;20198;-75
2022/02/09 20:57:59;;;;;;;10.83;6.17;;;;;;;;;;5080608;28;20218;-75
2022/02/09 21:00:38;;;;;;;6.57;4.33;;;;;;;;;;5086973;28;20194;-75
2022/02/09 21:03:18;;;;;;;6.87;4.00;;;;;;;;;;5085060;28;20778;-75
2022/02/09 21:05:56;;;;;;;4.97;3.83;;;;;;;;;;5085198;28;20206;-75
2022/02/09 21:11:16;;;;;;;10.33;5.07;;;;;;;;;;5075108;28;20670;-75
2022/02/09 21:13:54;;;;;;;10.17;3.43;;;;;;;;;;5086182;28;20265;-75
2022/02/09 21:16:33;;;;;;;9.43;4.13;;;;;;;;;;5084761;28;20236;-75
2022/02/09 21:22:17;;;;;;;13.67;6.20;;;;;;;;;;5086155;28;20228;-75
2022/02/09 21:55:57;;;;;;;5.57;3.93;;;;;;;;;;5088143;28;20198;-74
2022/02/09 21:58:37;;;;;;;8.33;5.07;;;;;;;;;;5084469;28;20204;-75
2022/02/09 22:01:32;;;;;;;6.80;4.07;;;;;;;;;;5085187;28;20216;-74
2022/02/09 22:07:27;;;;;;;6.13;3.80;;;;;;;;;;5097970;28;20228;-74
2022/02/09 22:20:57;;;;;;;8.27;4.20;;;;;;;;;;5096640;28;20576;-75
2022/02/09 22:24:02;;;;;;;7.00;3.73;;;;;;;;;;5097819;28;20591;-74
2022/02/09 22:33:03;;;;;;;8.97;4.40;;;;;;;;;;5047063;28;20546;-74
2022/02/09 22:47:20;;;;;;;9.47;4.20;;;;;;;;;;5097374;28;20252;-75
2022/02/09 22:49:49;;;;;;;5.90;4.63;;;;;;;;;;5097298;28;20265;-75
2022/02/09 22:55:09;;;;;;;5.47;3.57;;;;;;;;;;5097605;28;20209;-75
2022/02/09 22:57:43;;;;;;;5.90;3.83;;;;;;;;;;5097766;28;20224;-75
2022/02/09 23:00:17;;;;;;;7.60;4.17;;;;;;;;;;5097170;28;20197;-75
2022/02/09 23:02:50;;;;;;;11.77;4.37;;;;;;;;;;5096652;28;20233;-75
2022/02/09 23:05:42;;;;;;;6.63;3.30;;;;;;;;;;5097011;28;20583;-75
2022/02/09 23:08:34;;;;;;;7.83;3.97;;;;;;;;;;5097436;28;20246;-75
2022/02/09 23:11:32;;;;;;;8.43;3.37;;;;;;;;;;5097708;28;20983;-75
2022/02/09 23:14:08;;;;;;;17.37;7.07;;;;;;;;;;5097297;28;20540;-75
2022/02/09 23:25:52;;;;;;;17.03;5.93;;;;;;;;;;5094053;28;20205;-75
2022/02/09 23:29:21;;;;;;;15.30;6.53;;;;;;;;;;5090230;28;20205;-75
